Aeroporto :
LOGIN :

Iscrizione | Disclaimer

   EN    FR    IT 

 










Sommario :    VFR   VFR Marginale   IFR   IFR Intensivo   IFR Molto Intensivo
Visibilità : 
Base nubi : 
>= 8 km
>= 3000ft
5 / 8 km
1000 / 3000 ft
1500m / 5 km
500 / 1000 ft
800 / 1500m
200 / 500 ft
< 800m
< 200 ft
Simboli :   Temporali  Nebbia  Neve Forte  Precipitazioni Forti  Vento > 20 kt
SIGMETs :   Varie  Temporali  Ghiacco  Turbolenza  Onda orograficha  Ceneri Vulcaniche






- Altitudine del aeroporto : 270 ft
- Codice IATA : OXF


EGTK - Oxford (Kidlington)

ULTIMO METAR :
  • 151720Z 21008KT CAVOK 06/03 Q0996

METARs OBSOLETI :
  • 151650Z 21009KT CAVOK 06/03 Q0996
  • 151620Z 20010KT 9999 FEW037 06/03 Q0996
  • 151550Z 21012KT 9999 FEW037 07/03 Q0996
  • 151520Z 21011KT 9999 FEW038 07/03 Q0996
  • 151450Z 22012KT 9999 FEW036 08/03 Q0996

TAF TAF EGTK
Valido dal 15 a 18 ore il 16 a 03 ore UTC


151703Z 1518/1603 22012KT 9999 FEW030
PROB30
TEMPO 1518/1522 6000 SHRA BKN014
PROB30
TEMPO 1520/1522 4000 +SHRA



MetMap, La meteo Aeronautica in un colpo d'occhio ! - Copyright ORBIFLY Dicembre 2007 - Disclaimer

ORBIFLY MET'MAP TEAM :

Programmazione e sviluppo : Alexandra Zaïnal
Concezione : Baudouin d'Aumeries
Aiuto per la programmazione : Marc-Olivier Méhu
Supporto tecnico e logistico : Manuel Goepfert
Aiuto per la traduzione : Arnaldo La Scala

Contatto : metmap@orbifly.com




FONTI E CREDITI :

   NOAA